Time;durP1;ratioP1;P1;durP2;ratioP2;P2;SDS_P1;SDS_P2;PMS_P1;PMS_P2;Temp;Humidity;BMP_temperature;BMP_pressure;BME280_temperature;BME280_humidity;BME280_pressure;Samples;Min_cycle;Max_cycle;Signal;HPM_P1;HPM_P2
2022/04/02 00:00:55;;;;;;;;;16.00;15.25;;;;;6.18;54.32;100846.66;2095571;28;47483;-64
2022/04/02 00:01:56;;;;;;;;;16.20;16.20;;;;;6.18;54.21;100841.38;2098083;28;46834;-61
2022/04/02 00:02:56;;;;;;;;;15.00;14.00;;;;;6.20;54.08;100847.53;2097469;28;47778;-62
2022/04/02 00:03:57;;;;;;;;;13.25;12.25;;;;;6.21;53.97;100845.75;2100241;28;47642;-60
2022/04/02 00:04:58;;;;;;;;;9.40;9.00;;;;;6.20;54.07;100847.53;2103979;28;47147;-63
2022/04/02 00:05:58;;;;;;;;;14.25;14.25;;;;;6.22;54.07;100852.78;2103979;28;48165;-62
2022/04/02 00:06:59;;;;;;;;;17.00;16.25;;;;;6.22;53.58;100847.50;2103897;28;47833;-61
2022/04/02 00:07:59;;;;;;;;;14.75;13.25;;;;;6.23;53.71;100851.06;2104031;28;47796;-62
2022/04/02 00:08:59;;;;;;;;;14.75;14.75;;;;;6.22;53.68;100852.78;2103675;28;47750;-61
2022/04/02 00:10:00;;;;;;;;;13.75;13.25;;;;;6.21;53.33;100856.28;2103797;28;47739;-62
2022/04/02 00:11:00;;;;;;;;;13.00;13.00;;;;;6.20;53.55;100854.53;2103889;28;47386;-62
2022/04/02 00:12:02;;;;;;;;;13.00;13.00;;;;;6.18;53.56;100858.94;2101445;28;47584;-63
2022/04/02 00:13:03;;;;;;;;;12.20;12.20;;;;;6.17;53.88;100850.16;2092838;28;47563;-62
2022/04/02 00:14:03;;;;;;;;;13.25;13.25;;;;;6.17;53.67;100855.44;2086247;28;47275;-61
2022/04/02 00:15:04;;;;;;;;;15.75;13.00;;;;;6.18;53.56;100857.19;2103628;28;47779;-62
2022/04/02 00:16:05;;;;;;;;;12.50;11.50;;;;;6.16;53.47;100847.53;2104022;28;48147;-61
2022/04/02 00:17:06;;;;;;;;;12.60;11.80;;;;;6.16;53.35;100856.31;2097325;28;47635;-61
2022/04/02 00:18:07;;;;;;;;;14.00;13.20;;;;;6.16;53.57;100848.41;2088180;28;47466;-62
2022/04/02 00:19:07;;;;;;;;;10.50;10.50;;;;;6.15;53.35;100851.94;2093920;28;47430;-62
2022/04/02 00:20:08;;;;;;;;;10.00;10.00;;;;;6.15;53.01;100856.31;2103357;28;48216;-59
2022/04/02 00:21:10;;;;;;;;;13.25;11.25;;;;;6.14;53.51;100855.44;2103875;28;48010;-60
2022/04/02 00:22:10;;;;;;;;;14.00;12.40;;;;;6.14;53.44;100859.84;2103759;27;47658;-61
2022/04/02 00:24:30;;;;;;;;;8.40;8.40;;;;;6.15;53.09;100853.69;2091657;28;47911;-61
2022/04/02 00:25:31;;;;;;;;;13.75;12.75;;;;;6.15;53.08;100854.56;2104063;28;47670;-62
2022/04/02 00:26:32;;;;;;;;;14.00;14.00;;;;;6.14;53.17;100857.22;2103802;28;47731;-63
2022/04/02 00:27:32;;;;;;;;;10.80;10.80;;;;;6.13;53.20;100855.47;2103762;28;47835;-63
2022/04/02 00:28:35;;;;;;;;;12.00;12.00;;;;;6.12;53.00;100856.34;2104025;28;47670;-61
2022/04/02 00:29:38;;;;;;;;;6.80;6.80;;;;;6.13;53.19;100860.72;2103945;28;48453;-63
2022/04/02 00:30:40;;;;;;;;;10.60;10.60;;;;;6.14;53.04;100859.84;2104099;28;47705;-61
2022/04/02 00:31:41;;;;;;;;;7.20;7.20;;;;;6.14;53.23;100859.84;2103662;28;47671;-60
2022/04/02 00:32:41;;;;;;;;;13.75;13.75;;;;;6.13;52.82;100858.97;2103860;28;46869;-58
2022/04/02 00:33:44;;;;;;;;;7.00;7.00;;;;;6.14;52.88;100857.22;2103683;28;47610;-62
2022/04/02 00:34:44;;;;;;;;;12.00;10.20;;;;;6.14;52.66;100852.81;2103651;28;48247;-61
2022/04/02 00:35:45;;;;;;;;;10.75;10.50;;;;;6.12;52.54;100848.44;2093946;28;47619;-61
2022/04/02 00:36:45;;;;;;;;;10.50;10.25;;;;;6.11;52.58;100854.59;2089142;28;47122;-61
2022/04/02 00:37:45;;;;;;;;;10.25;9.75;;;;;6.11;52.59;100851.94;2099452;28;47582;-60
2022/04/02 00:38:46;;;;;;;;;9.00;9.00;;;;;6.12;52.63;100853.69;2103638;28;47507;-60
2022/04/02 00:39:46;;;;;;;;;8.50;8.50;;;;;6.11;52.36;100855.47;2094358;28;47926;-62
2022/04/02 00:40:47;;;;;;;;;11.25;9.00;;;;;6.12;52.18;100853.69;2092693;28;47659;-59
2022/04/02 00:41:47;;;;;;;;;7.00;7.00;;;;;6.11;52.55;100855.47;2098569;28;47685;-62
2022/04/02 00:42:47;;;;;;;;;6.75;6.75;;;;;6.10;52.46;100853.72;2102801;27;48346;-61
2022/04/02 00:44:07;;;;;;;;;9.50;9.50;;;;;6.11;53.03;100857.22;2100077;27;47679;-62
2022/04/02 00:45:08;;;;;;;;;10.80;8.60;;;;;6.10;52.30;100856.34;2095354;28;47829;-61
2022/04/02 00:46:11;;;;;;;;;10.60;9.40;;;;;6.10;51.82;100853.72;2097036;27;48016;-61
2022/04/02 00:47:11;;;;;;;;;7.80;7.20;;;;;6.09;52.14;100848.41;2101018;27;47664;-61
2022/04/02 00:48:12;;;;;;;;;8.75;7.75;;;;;6.08;51.92;100849.28;2103506;28;47816;-62
2022/04/02 00:49:14;;;;;;;;;8.50;8.00;;;;;6.08;51.83;100849.28;2104754;27;47534;-63
2022/04/02 00:50:15;;;;;;;;;8.20;7.00;;;;;6.08;51.62;100852.81;2103793;27;47775;-63
2022/04/02 00:51:16;;;;;;;;;4.75;4.75;;;;;6.08;51.78;100854.56;2101629;27;47547;-63
2022/04/02 00:52:18;;;;;;;;;7.80;7.40;;;;;6.07;51.73;100851.06;2103697;27;48171;-63
2022/04/02 00:53:19;;;;;;;;;7.20;5.60;;;;;6.06;51.89;100848.44;2102362;27;47919;-62
2022/04/02 00:54:20;;;;;;;;;6.40;5.60;;;;;6.04;51.27;100840.53;2102714;27;48025;-63
2022/04/02 00:55:21;;;;;;;;;7.00;7.00;;;;;6.05;51.46;100851.94;2104002;27;47538;-63
2022/04/02 00:56:22;;;;;;;;;6.80;6.80;;;;;6.05;51.33;100847.53;2101696;27;48061;-62
2022/04/02 00:57:24;;;;;;;;;7.00;7.00;;;;;6.03;51.20;100844.03;2100936;27;47702;-61
2022/04/02 00:58:25;;;;;;;;;7.40;7.00;;;;;6.03;51.39;100854.59;2097148;27;47953;-62
2022/04/02 00:59:26;;;;;;;;;7.25;7.25;;;;;6.02;51.14;100846.69;2103942;27;46796;-62
2022/04/02 01:00:26;;;;;;;;;10.25;9.00;;;;;6.01;51.66;100851.06;2101304;27;47445;-62
2022/04/02 01:01:26;;;;;;;;;7.00;5.50;;;;;5.99;51.56;100844.94;2099136;27;48316;-61
2022/04/02 01:02:27;;;;;;;;;6.00;5.00;;;;;5.99;51.11;100841.44;2100450;27;47921;-61
2022/04/02 01:03:27;;;;;;;;;8.00;7.00;;;;;5.99;51.53;100846.69;2104094;27;47960;-62
2022/04/02 01:04:28;;;;;;;;;7.25;7.00;;;;;5.99;51.17;100850.19;2103745;28;47494;-61
2022/04/02 01:05:28;;;;;;;;;7.00;7.00;;;;;6.00;51.55;100843.19;2102396;27;47463;-61
2022/04/02 01:06:30;;;;;;;;;6.00;6.00;;;;;6.00;51.30;100846.69;2100971;27;47248;-62
2022/04/02 01:07:31;;;;;;;;;5.40;5.40;;;;;6.01;50.75;100845.81;2102348;27;47714;-62
2022/04/02 01:08:31;;;;;;;;;7.00;6.75;;;;;6.00;50.78;100840.53;2103498;27;47422;-62
2022/04/02 01:09:32;;;;;;;;;5.50;5.25;;;;;5.99;50.90;100846.69;2103417;27;47409;-61
2022/04/02 01:10:33;;;;;;;;;7.50;7.50;;;;;5.98;50.88;100839.66;2102390;27;48025;-60
2022/04/02 01:11:38;;;;;;;;;4.80;4.80;;;;;5.97;50.54;100845.78;2103948;27;48042;-60
2022/04/02 01:12:39;;;;;;;;;7.80;7.40;;;;;5.96;51.27;100837.00;2099519;27;47540;-60
2022/04/02 01:13:39;;;;;;;;;4.00;4.00;;;;;5.97;50.70;100829.97;2101552;27;47377;-62
2022/04/02 01:14:39;;;;;;;;;6.75;6.75;;;;;5.96;50.69;100841.41;2104370;27;47591;-60
2022/04/02 01:15:40;;;;;;;;;3.75;3.75;;;;;5.96;50.57;100852.81;2100046;28;48118;-61
2022/04/02 01:16:40;;;;;;;;;6.75;6.75;;;;;5.95;51.03;100840.53;2100158;27;47235;-61
2022/04/02 01:17:41;;;;;;;;;8.00;7.75;;;;;5.96;50.69;100844.91;2099040;27;47796;-61
2022/04/02 01:18:41;;;;;;;;;6.00;6.00;;;;;5.98;51.27;100842.31;2103541;27;47762;-61
2022/04/02 01:19:42;;;;;;;;;5.00;5.00;;;;;5.97;50.62;100837.88;2105752;27;47703;-60
2022/04/02 01:20:43;;;;;;;;;7.00;7.00;;;;;5.98;51.09;100843.19;2099826;28;47881;-62
2022/04/02 01:21:45;;;;;;;;;7.00;7.00;;;;;5.95;50.94;100840.53;2105507;27;47428;-64
2022/04/02 01:22:46;;;;;;;;;1.80;1.80;;;;;5.96;50.68;100844.03;2099102;27;47916;-60
2022/04/02 01:23:47;;;;;;;;;7.40;7.40;;;;;5.94;50.50;100841.41;2107880;27;47642;-60
2022/04/02 01:24:47;;;;;;;;;3.50;3.50;;;;;5.93;50.38;100837.03;2103905;27;47888;-60
2022/04/02 01:25:48;;;;;;;;;7.25;6.75;;;;;5.92;50.90;100845.81;2102206;27;47722;-60
2022/04/02 01:26:48;;;;;;;;;4.75;4.75;;;;;5.92;50.35;100840.53;2104485;27;47596;-56
2022/04/02 01:27:49;;;;;;;;;6.25;6.00;;;;;5.92;50.30;100840.53;2099037;27;48009;-57
2022/04/02 01:28:53;;;;;;;;;3.25;3.25;;;;;5.91;50.61;100844.06;2098407;28;47423;-58
2022/04/02 01:29:54;;;;;;;;;8.00;6.00;;;;;5.90;50.66;100843.19;2105142;27;48185;-58
2022/04/02 01:30:55;;;;;;;;;7.00;7.00;;;;;5.89;50.63;100845.78;2101353;27;47652;-60
2022/04/02 01:31:55;;;;;;;;;4.25;3.25;;;;;5.87;50.17;100842.28;2100954;27;47384;-60
2022/04/02 01:32:56;;;;;;;;;2.75;2.75;;;;;5.86;50.43;100846.66;2105532;27;47099;-61
2022/04/02 01:33:56;;;;;;;;;4.50;4.25;;;;;5.85;50.49;100841.41;2102087;27;47570;-63
2022/04/02 01:34:57;;;;;;;;;5.75;5.75;;;;;5.83;50.12;100838.75;2106818;27;47802;-61
2022/04/02 01:36:03;;;;;;;;;4.00;1.75;;;;;5.82;50.24;100839.63;2107032;27;47896;-61
2022/04/02 01:37:04;;;;;;;;;4.00;4.00;;;;;5.81;50.56;100842.25;2090501;28;48107;-61
2022/04/02 01:38:05;;;;;;;;;6.20;6.20;;;;;5.80;49.98;100844.03;2093317;28;47778;-61
2022/04/02 01:39:05;;;;;;;;;7.75;6.00;;;;;5.80;50.81;100848.41;2097450;28;47787;-62
2022/04/02 01:40:07;;;;;;;;;8.00;6.25;;;;;5.79;50.18;100846.66;2091657;28;47722;-61
2022/04/02 01:41:07;;;;;;;;;3.80;3.60;;;;;5.79;50.48;100849.28;2103043;27;48200;-61
2022/04/02 01:42:08;;;;;;;;;2.75;2.75;;;;;5.78;49.99;100847.53;2095907;28;47584;-59
2022/04/02 01:43:08;;;;;;;;;5.25;5.25;;;;;5.78;49.95;100852.81;2096392;28;48035;-61
2022/04/02 01:44:09;;;;;;;;;6.50;6.50;;;;;5.76;50.44;100849.28;2106603;27;47492;-63
2022/04/02 01:45:10;;;;;;;;;6.50;5.75;;;;;5.77;50.46;100854.56;2100315;28;47281;-62
2022/04/02 01:46:11;;;;;;;;;3.25;3.25;;;;;5.77;50.36;100853.69;2106881;27;47483;-62
2022/04/02 01:47:11;;;;;;;;;4.60;4.60;;;;;5.75;50.15;100855.44;2104398;27;47652;-62
2022/04/02 01:48:11;;;;;;;;;5.25;4.75;;;;;5.72;50.36;100860.72;2100257;27;47770;-56
2022/04/02 01:49:12;;;;;;;;;3.50;3.50;;;;;5.71;50.05;100858.94;2105352;27;47779;-60
2022/04/02 01:50:12;;;;;;;;;3.00;3.00;;;;;5.70;50.46;100862.44;2093740;28;47907;-60
2022/04/02 01:51:13;;;;;;;;;5.75;5.75;;;;;5.69;50.28;100863.31;2093727;28;47251;-60
2022/04/02 01:52:19;;;;;;;;;4.50;4.00;;;;;5.68;50.02;100859.81;2107213;27;47701;-59
2022/04/02 01:53:21;;;;;;;;;6.00;6.00;;;;;5.69;50.03;100858.06;2098229;27;47645;-58
2022/04/02 01:54:21;;;;;;;;;5.80;4.00;;;;;5.69;50.54;100865.97;2106323;27;47612;-61
2022/04/02 01:55:22;;;;;;;;;4.00;4.00;;;;;5.68;50.05;100872.97;2108633;27;47577;-60
2022/04/02 01:56:22;;;;;;;;;5.75;4.25;;;;;5.68;50.23;100861.56;2105362;27;47803;-60
2022/04/02 01:57:22;;;;;;;;;4.75;4.75;;;;;5.68;50.42;100872.09;2109833;27;47772;-59
2022/04/02 01:58:23;;;;;;;;;5.25;4.75;;;;;5.69;50.34;100871.22;2086687;28;46082;-61
2022/04/02 01:59:23;;;;;;;;;6.00;6.00;;;;;5.70;50.22;100872.97;2086762;28;47652;-59
2022/04/02 02:00:24;;;;;;;;;6.25;6.25;;;;;5.70;50.33;100863.31;2100975;27;47424;-61
2022/04/02 02:01:25;;;;;;;;;4.00;4.00;;;;;5.72;50.01;100873.88;2104890;27;47245;-61
2022/04/02 02:02:26;;;;;;;;;5.75;4.00;;;;;5.73;50.00;100875.63;2108957;27;47960;-61
2022/04/02 02:03:26;;;;;;;;;7.20;6.40;;;;;5.73;50.08;100873.00;2109100;27;48020;-61
2022/04/02 02:04:28;;;;;;;;;8.25;3.75;;;;;5.72;49.99;100871.25;2105076;27;48036;-60
2022/04/02 02:05:28;;;;;;;;;9.00;5.80;;;;;5.71;50.09;100867.72;2109591;27;47713;-61
2022/04/02 02:06:30;;;;;;;;;8.25;7.00;;;;;5.72;50.28;100868.63;2107421;27;47870;-60
2022/04/02 02:07:30;;;;;;;;;6.60;5.00;;;;;5.71;50.34;100874.72;2106798;27;47877;-58
2022/04/02 02:08:32;;;;;;;;;5.50;4.00;;;;;5.68;50.09;100870.34;2100042;27;47565;-60
2022/04/02 02:09:34;;;;;;;;;3.80;3.80;;;;;5.67;49.63;100879.13;2103747;28;48027;-61
2022/04/02 02:10:34;;;;;;;;;3.80;3.00;;;;;5.66;49.98;100876.50;2109601;27;47713;-61
2022/04/02 02:11:36;;;;;;;;;6.50;6.50;;;;;5.66;49.78;100873.84;2112853;27;47590;-60
2022/04/02 02:12:37;;;;;;;;;4.00;4.00;;;;;5.66;50.16;100881.75;2104936;28;47173;-61
2022/04/02 02:13:37;;;;;;;;;6.50;5.50;;;;;5.65;49.95;100880.88;2103524;27;47700;-61
2022/04/02 02:14:38;;;;;;;;;3.75;3.50;;;;;5.66;49.96;100884.41;2104979;27;47380;-60
2022/04/02 02:15:38;;;;;;;;;5.50;5.50;;;;;5.65;50.13;100880.00;2104884;27;47707;-60
2022/04/02 02:16:38;;;;;;;;;4.00;4.00;;;;;5.67;50.05;100875.63;2104793;27;46715;-61
2022/04/02 02:17:39;;;;;;;;;9.00;4.00;;;;;5.67;50.34;100887.03;2104803;27;47606;-61
2022/04/02 02:18:39;;;;;;;;;5.50;4.50;;;;;5.67;49.75;100880.88;2103660;27;47565;-61
2022/04/02 02:19:40;;;;;;;;;6.50;6.50;;;;;5.66;50.11;100884.41;2104907;27;48110;-61
2022/04/02 02:20:40;;;;;;;;;10.75;6.00;;;;;5.66;50.18;100880.00;2099999;27;47620;-61
2022/04/02 02:21:41;;;;;;;;;6.00;6.00;;;;;5.66;50.00;100880.00;2104766;27;47386;-60
2022/04/02 02:22:42;;;;;;;;;5.00;4.50;;;;;5.65;50.32;100874.75;2104939;27;47674;-61
2022/04/02 02:23:43;;;;;;;;;5.80;3.80;;;;;5.64;50.01;100880.88;2104367;27;47593;-61
2022/04/02 02:24:43;;;;;;;;;7.00;7.00;;;;;5.63;49.89;100880.00;2104907;27;47560;-61
2022/04/02 02:25:44;;;;;;;;;5.00;5.00;;;;;5.63;50.07;100880.00;2105005;27;47740;-61
2022/04/02 02:26:45;;;;;;;;;5.75;5.75;;;;;5.63;49.83;100874.75;2104594;27;47792;-60
2022/04/02 02:27:45;;;;;;;;;5.00;4.50;;;;;5.62;50.18;100875.63;2104722;27;48016;-61
2022/04/02 02:28:48;;;;;;;;;5.50;5.50;;;;;5.61;49.68;100874.75;2096454;27;47902;-61
2022/04/02 02:29:48;;;;;;;;;3.80;3.80;;;;;5.61;49.96;100879.13;2108201;27;47822;-61
2022/04/02 02:30:49;;;;;;;;;6.50;4.00;;;;;5.61;49.94;100876.50;2108489;27;47889;-60
2022/04/02 02:31:49;;;;;;;;;3.25;3.25;;;;;5.60;50.22;100877.38;2103288;27;47870;-60
2022/04/02 02:32:49;;;;;;;;;7.00;6.00;;;;;5.60;49.85;100880.88;2104402;27;47711;-59
2022/04/02 02:36:30;;;;;;;;;5.80;5.80;;;;;5.59;50.00;100883.53;2104052;27;47518;-61
2022/04/02 02:37:30;;;;;;;;;7.00;7.00;;;;;5.59;49.76;100880.88;2104953;27;47729;-59
2022/04/02 02:38:31;;;;;;;;;2.00;2.00;;;;;5.61;49.84;100887.03;2104261;27;47462;-62
2022/04/02 02:39:31;;;;;;;;;5.00;3.00;;;;;5.61;50.20;100880.00;2078173;28;47216;-62
2022/04/02 02:40:32;;;;;;;;;6.50;6.50;;;;;5.62;49.82;100878.25;2079122;28;47322;-60
2022/04/02 02:41:33;;;;;;;;;9.00;8.60;;;;;5.61;50.30;100881.75;2104178;27;47612;-60
2022/04/02 02:42:33;;;;;;;;;3.00;3.00;;;;;5.61;49.97;100892.28;2103753;27;47945;-58
2022/04/02 02:43:34;;;;;;;;;7.00;4.00;;;;;5.61;49.70;100890.53;2099355;27;46293;-61
2022/04/02 02:44:34;;;;;;;;;4.25;4.25;;;;;5.60;50.10;100883.53;2100246;27;47980;-61
2022/04/02 02:45:35;;;;;;;;;7.00;6.00;;;;;5.61;50.27;100890.53;2104776;27;47945;-61
2022/04/02 02:46:35;;;;;;;;;8.50;8.00;;;;;5.60;50.31;100888.78;2103430;27;47617;-61
2022/04/02 02:47:36;;;;;;;;;2.75;2.75;;;;;5.62;50.12;100894.06;2096311;28;47649;-62
2022/04/02 02:48:36;;;;;;;;;6.00;6.00;;;;;5.63;49.92;100893.16;2100727;27;47214;-61
2022/04/02 02:49:37;;;;;;;;;6.75;5.75;;;;;5.64;49.89;100889.66;2095576;28;47810;-57
2022/04/02 02:50:37;;;;;;;;;4.00;4.00;;;;;5.67;50.02;100894.03;2099440;28;47681;-63
2022/04/02 02:51:38;;;;;;;;;5.75;5.75;;;;;5.67;50.56;100894.91;2104919;27;45550;-61
2022/04/02 02:52:38;;;;;;;;;7.00;6.75;;;;;5.68;49.92;100893.16;2091725;28;47212;-61
2022/04/02 02:53:39;;;;;;;;;6.00;4.00;;;;;5.68;49.65;100898.44;2095236;28;48113;-61
2022/04/02 02:54:40;;;;;;;;;7.20;6.80;;;;;5.69;49.76;100902.81;2104311;27;47468;-60
2022/04/02 02:55:41;;;;;;;;;7.50;6.50;;;;;5.69;50.17;100898.44;2104553;27;47254;-60
2022/04/02 02:56:41;;;;;;;;;4.00;4.00;;;;;5.69;49.82;100894.91;2104674;27;47629;-61
2022/04/02 02:57:43;;;;;;;;;6.00;6.00;;;;;5.68;50.23;100899.31;2104565;27;47689;-62
2022/04/02 02:58:44;;;;;;;;;5.80;5.80;;;;;5.69;49.90;100902.81;2104485;27;47669;-59
2022/04/02 02:59:44;;;;;;;;;8.00;8.00;;;;;5.68;49.82;100904.56;2104601;27;47841;-62
2022/04/02 03:00:46;;;;;;;;;6.00;6.00;;;;;5.69;49.93;100905.44;2104758;27;47486;-61
2022/04/02 03:01:46;;;;;;;;;7.40;7.40;;;;;5.71;50.04;100901.06;2104519;27;47162;-63
2022/04/02 03:02:47;;;;;;;;;9.50;8.00;;;;;5.70;49.79;100902.81;2105375;27;47547;-61
2022/04/02 03:03:47;;;;;;;;;8.25;7.00;;;;;5.72;49.69;100901.09;2081344;28;48088;-59
2022/04/02 03:04:48;;;;;;;;;9.00;7.50;;;;;5.72;49.68;100900.22;2083188;28;47850;-61
2022/04/02 03:05:49;;;;;;;;;8.00;7.00;;;;;5.73;50.20;100902.84;2102746;27;47723;-61
2022/04/02 03:06:49;;;;;;;;;8.40;7.80;;;;;5.73;49.54;100904.59;2105648;27;47648;-58
2022/04/02 03:07:50;;;;;;;;;7.50;7.50;;;;;5.74;49.99;100903.72;2106167;27;47505;-61
2022/04/02 03:08:51;;;;;;;;;4.00;4.00;;;;;5.74;49.70;100901.09;2104372;27;47828;-60
2022/04/02 03:09:51;;;;;;;;;6.50;6.50;;;;;5.74;50.08;100904.59;2103711;27;47086;-61
2022/04/02 03:10:54;;;;;;;;;7.00;7.00;;;;;5.74;49.43;100906.34;2100011;27;48334;-59
2022/04/02 03:11:56;;;;;;;;;5.60;5.00;;;;;5.73;50.14;100905.47;2102042;27;47480;-58
2022/04/02 03:12:57;;;;;;;;;7.00;5.00;;;;;5.73;50.13;100912.50;2105353;27;48441;-61
2022/04/02 03:13:58;;;;;;;;;7.60;7.60;;;;;5.72;49.75;100903.72;2101220;27;48750;-62
2022/04/02 03:15:00;;;;;;;;;8.00;5.25;;;;;5.73;49.87;100907.22;2105446;27;47866;-61
2022/04/02 03:16:02;;;;;;;;;9.00;8.60;;;;;5.75;49.70;100916.00;2106680;27;47925;-61
2022/04/02 03:17:02;;;;;;;;;10.60;7.40;;;;;5.75;49.89;100910.75;2095524;28;47322;-62
2022/04/02 03:18:06;;;;;;;;;8.00;7.25;;;;;5.75;50.14;100914.25;2096329;28;48084;-61
2022/04/02 03:19:06;;;;;;;;;7.20;7.00;;;;;5.74;49.86;100915.13;2107605;27;48056;-62
2022/04/02 03:20:07;;;;;;;;;7.75;6.75;;;;;5.74;49.74;100911.63;2105382;27;47612;-60
2022/04/02 03:21:07;;;;;;;;;6.75;6.75;;;;;5.73;49.59;100909.88;2110213;27;47549;-59
2022/04/02 03:22:08;;;;;;;;;6.50;6.50;;;;;5.72;50.00;100911.63;2106148;27;47906;-61
2022/04/02 03:23:09;;;;;;;;;6.00;6.00;;;;;5.72;49.89;100909.00;2100157;28;47780;-61
2022/04/02 03:24:10;;;;;;;;;3.00;3.00;;;;;5.71;50.04;100915.09;2100642;27;48007;-61
2022/04/02 03:25:16;;;;;;;;;8.40;7.60;;;;;5.73;49.85;100920.41;2087755;28;47406;-61
2022/04/02 03:26:17;;;;;;;;;9.20;9.20;;;;;5.72;50.10;100921.28;2092587;28;47848;-60
2022/04/02 03:27:17;;;;;;;;;7.75;7.50;;;;;5.73;49.97;100923.03;2104757;27;47742;-62
2022/04/02 03:28:17;;;;;;;;;7.50;7.50;;;;;5.74;49.89;100919.53;2087726;28;47658;-60
2022/04/02 03:29:18;;;;;;;;;11.25;9.00;;;;;5.72;49.91;100921.28;2086611;28;47773;-62
2022/04/02 03:30:21;;;;;;;;;7.75;7.75;;;;;5.72;49.83;100916.00;2104471;28;47478;-61
2022/04/02 03:31:22;;;;;;;;;1.00;1.00;;;;;5.71;50.19;100914.22;2104387;28;47790;-61
2022/04/02 03:32:22;;;;;;;;;9.40;7.80;;;;;5.72;50.15;100913.38;2100040;28;47655;-62
2022/04/02 03:33:23;;;;;;;;;12.75;9.25;;;;;5.72;49.58;100918.66;2100427;28;47488;-62
2022/04/02 03:34:23;;;;;;;;;12.00;9.50;;;;;5.72;49.70;100913.38;2104053;28;47796;-61
2022/04/02 03:35:25;;;;;;;;;7.50;7.50;;;;;5.70;50.24;100917.75;2103915;28;47625;-60
2022/04/02 03:36:25;;;;;;;;;7.80;7.80;;;;;5.70;49.61;100920.38;2104259;28;47969;-61
2022/04/02 03:37:26;;;;;;;;;7.75;6.75;;;;;5.70;49.95;100915.09;2104221;28;47803;-60
2022/04/02 03:38:27;;;;;;;;;6.00;6.00;;;;;5.68;49.66;100925.63;2104133;28;47687;-62
2022/04/02 03:39:28;;;;;;;;;7.60;7.60;;;;;5.68;49.80;100915.09;2103665;28;47755;-60
2022/04/02 03:40:28;;;;;;;;;11.00;8.25;;;;;5.66;49.70;100919.50;2103976;28;47425;-62
2022/04/02 03:41:29;;;;;;;;;5.00;4.50;;;;;5.67;49.79;100912.47;2103896;28;47764;-62
2022/04/02 03:42:29;;;;;;;;;5.00;5.00;;;;;5.66;49.60;100916.88;2103341;28;47819;-61
2022/04/02 03:43:30;;;;;;;;;5.25;5.25;;;;;5.66;49.75;100916.88;2102980;27;47909;-61
2022/04/02 03:44:31;;;;;;;;;8.00;7.50;;;;;5.67;50.23;100923.00;2104123;28;47358;-61
2022/04/02 03:45:31;;;;;;;;;7.25;6.50;;;;;5.66;49.88;100919.50;2102143;28;47508;-62
2022/04/02 03:47:51;;;;;;;;;9.20;7.00;;;;;5.66;49.83;100916.88;2099376;28;47422;-61
2022/04/02 03:48:51;;;;;;;;;6.50;6.50;;;;;5.66;50.27;100922.13;2103864;28;48108;-61
2022/04/02 03:49:52;;;;;;;;;7.50;7.25;;;;;5.65;49.91;100923.00;2103702;28;47801;-60
2022/04/02 03:50:52;;;;;;;;;7.00;7.00;;;;;5.65;50.17;100912.47;2103964;28;48026;-60
2022/04/02 03:51:52;;;;;;;;;7.75;7.75;;;;;5.66;50.32;100913.34;2101989;28;47858;-58
2022/04/02 03:52:53;;;;;;;;;7.75;7.25;;;;;5.66;50.08;100913.34;2104189;28;47937;-62
2022/04/02 03:53:53;;;;;;;;;8.00;8.00;;;;;5.67;50.07;100920.38;2094509;28;47666;-59
2022/04/02 03:54:54;;;;;;;;;9.75;9.00;;;;;5.67;50.15;100920.38;2094417;28;47372;-62
2022/04/02 03:55:54;;;;;;;;;9.00;8.25;;;;;5.68;50.03;100920.38;2104370;28;45329;-62
2022/04/02 03:56:54;;;;;;;;;8.50;6.50;;;;;5.69;49.80;100918.63;2102418;28;48068;-60
2022/04/02 03:57:55;;;;;;;;;7.50;7.50;;;;;5.69;50.09;100922.13;2099105;28;47401;-61
2022/04/02 03:58:55;;;;;;;;;7.75;6.25;;;;;5.69;50.41;100916.84;2104042;28;47797;-61
2022/04/02 03:59:56;;;;;;;;;7.50;6.00;;;;;5.69;50.08;100918.63;2100590;28;47412;-61
2022/04/02 04:00:56;;;;;;;;;6.00;6.00;;;;;5.67;50.08;100918.63;2100495;28;48007;-61
2022/04/02 04:01:58;;;;;;;;;7.00;7.00;;;;;5.67;50.16;100926.50;2103901;27;46924;-61
2022/04/02 04:02:58;;;;;;;;;7.20;6.80;;;;;5.66;50.09;100924.75;2097915;28;47669;-61
2022/04/02 04:03:58;;;;;;;;;5.75;5.75;;;;;5.64;49.78;100928.28;2094643;28;47491;-60
2022/04/02 04:04:59;;;;;;;;;9.25;9.25;;;;;5.64;49.90;100929.16;2104264;28;47838;-61
2022/04/02 04:06:01;;;;;;;;;6.25;6.25;;;;;5.63;49.99;100929.16;2103879;28;47481;-62
2022/04/02 04:07:02;;;;;;;;;7.20;7.20;;;;;5.63;50.10;100934.41;2104141;28;47469;-61
2022/04/02 04:08:02;;;;;;;;;7.80;7.80;;;;;5.61;49.83;100924.75;2103960;28;47965;-62
2022/04/02 04:09:03;;;;;;;;;7.00;7.00;;;;;5.63;49.89;100929.16;2095067;28;47813;-61
2022/04/02 04:10:05;;;;;;;;;5.50;5.25;;;;;5.63;49.77;100926.53;2095106;28;47826;-62
2022/04/02 04:11:05;;;;;;;;;7.40;7.40;;;;;5.62;49.86;100925.66;2085647;28;48057;-60
2022/04/02 04:12:07;;;;;;;;;10.00;8.00;;;;;5.64;50.33;100928.28;2085856;28;47101;-61
2022/04/02 04:13:08;;;;;;;;;8.40;8.40;;;;;5.62;50.08;100930.91;2102578;28;47775;-60
2022/04/02 04:14:08;;;;;;;;;7.50;7.50;;;;;5.62;50.31;100925.66;2100256;28;48012;-62
2022/04/02 04:15:08;;;;;;;;;9.00;7.00;;;;;5.63;50.10;100926.53;2104071;28;47251;-62
2022/04/02 04:16:09;;;;;;;;;7.00;7.00;;;;;5.62;50.36;100933.53;2103593;27;47809;-62
2022/04/02 04:17:11;;;;;;;;;5.25;5.25;;;;;5.61;50.01;100929.16;2103586;28;47393;-62
2022/04/02 04:18:11;;;;;;;;;8.40;8.20;;;;;5.60;49.72;100935.28;2095492;27;47651;-61
2022/04/02 04:19:13;;;;;;;;;7.25;7.25;;;;;5.59;49.99;100934.41;2102125;28;49314;-61
2022/04/02 04:20:14;;;;;;;;;7.40;7.40;;;;;5.57;49.91;100936.16;2099629;27;47632;-61
2022/04/02 04:21:14;;;;;;;;;6.25;6.25;;;;;5.59;49.95;100941.44;2093150;28;47919;-62
2022/04/02 04:22:15;;;;;;;;;9.50;9.50;;;;;5.59;50.47;100934.41;2095113;28;47400;-62
2022/04/02 04:23:15;;;;;;;;;7.50;6.75;;;;;5.56;49.64;100937.03;2104128;28;47710;-61
2022/04/02 04:24:16;;;;;;;;;7.25;6.25;;;;;5.54;50.16;100936.16;2099259;28;47630;-60
2022/04/02 04:25:17;;;;;;;;;8.00;7.00;;;;;5.53;50.45;100933.50;2099234;28;48053;-59
2022/04/02 04:26:17;;;;;;;;;10.25;9.00;;;;;5.52;50.04;100942.28;2095477;28;47891;-63
2022/04/02 04:27:18;;;;;;;;;10.25;7.50;;;;;5.51;50.56;100940.53;2100900;28;48263;-56
2022/04/02 04:28:18;;;;;;;;;7.50;7.50;;;;;5.50;49.95;100950.19;2097380;28;47452;-61
2022/04/02 04:29:18;;;;;;;;;7.50;6.50;;;;;5.50;50.21;100952.81;2103868;28;47977;-62
2022/04/02 04:30:19;;;;;;;;;10.00;8.25;;;;;5.49;49.94;100948.44;2103741;28;47880;-61
2022/04/02 04:31:19;;;;;;;;;9.00;9.00;;;;;5.48;50.13;100951.94;2103480;28;48088;-63
2022/04/02 04:32:20;;;;;;;;;9.25;7.00;;;;;5.48;49.95;100954.56;2097215;27;47537;-62
2022/04/02 04:33:20;;;;;;;;;8.00;8.00;;;;;5.48;50.46;100957.19;2095368;28;47676;-62
2022/04/02 04:34:21;;;;;;;;;9.00;9.00;;;;;5.47;50.05;100958.09;2101691;28;47869;-62
2022/04/02 04:35:22;;;;;;;;;8.60;7.60;;;;;5.49;50.62;100955.44;2101580;28;47713;-62
2022/04/02 04:36:23;;;;;;;;;8.00;8.00;;;;;5.49;50.05;100960.72;2103426;28;48294;-61
2022/04/02 04:37:24;;;;;;;;;7.00;7.00;;;;;5.49;50.35;100955.44;2103781;28;47586;-60
2022/04/02 04:38:25;;;;;;;;;8.00;6.50;;;;;5.49;50.52;100961.59;2103630;28;47104;-60
2022/04/02 04:39:25;;;;;;;;;7.50;7.50;;;;;5.48;50.47;100953.69;2103720;28;47747;-61
2022/04/02 04:40:25;;;;;;;;;12.25;9.50;;;;;5.49;50.57;100965.97;2103684;28;48217;-61
2022/04/02 04:41:26;;;;;;;;;8.25;8.25;;;;;5.49;49.96;100966.84;2103827;28;47820;-60
2022/04/02 04:42:26;;;;;;;;;9.25;8.50;;;;;5.47;50.47;100967.72;2100807;28;47376;-61
2022/04/02 04:43:27;;;;;;;;;9.00;9.00;;;;;5.46;50.56;100966.84;2097285;28;47439;-61
2022/04/02 04:44:27;;;;;;;;;7.25;7.25;;;;;5.48;50.16;100965.09;2104117;28;47650;-62
2022/04/02 04:45:27;;;;;;;;;10.25;8.00;;;;;5.47;50.33;100973.00;2094781;28;47297;-62
2022/04/02 04:46:28;;;;;;;;;7.50;7.50;;;;;5.49;50.20;100973.88;2094704;28;47421;-61
2022/04/02 04:47:30;;;;;;;;;11.50;11.50;;;;;5.49;50.29;100971.25;2104164;28;47956;-59
2022/04/02 04:48:30;;;;;;;;;7.80;7.40;;;;;5.49;50.01;100972.13;2103843;28;48135;-61
2022/04/02 04:49:30;;;;;;;;;7.75;7.75;;;;;5.48;50.43;100973.00;2094382;28;47744;-59
2022/04/02 04:50:31;;;;;;;;;9.25;8.50;;;;;5.48;49.97;100978.25;2094399;28;47654;-60
2022/04/02 04:51:32;;;;;;;;;8.50;7.25;;;;;5.47;50.38;100967.72;2102639;28;47856;-61